createdAt,value
2022-08-14T00:00:18.652Z,712.30
2022-08-14T00:01:23.837Z,712.25
2022-08-14T00:02:18.704Z,712.44
2022-08-14T00:03:18.646Z,712.48
2022-08-14T00:04:31.905Z,712.66
2022-08-14T00:05:18.601Z,712.93
2022-08-14T00:06:27.720Z,713.10
2022-08-14T00:07:18.574Z,713.30
2022-08-14T00:08:43.555Z,713.56
2022-08-14T00:09:18.588Z,713.60
2022-08-14T00:10:51.929Z,713.59
2022-08-14T00:11:18.531Z,713.44
2022-08-14T00:12:24.326Z,713.60
2022-08-14T00:13:18.520Z,713.40
2022-08-14T00:14:18.503Z,713.41
2022-08-14T00:15:18.522Z,713.41
2022-08-14T00:16:41.646Z,713.46
2022-08-14T00:17:18.480Z,713.65
2022-08-14T00:19:05.347Z,713.78
2022-08-14T00:19:21.509Z,714.01
2022-08-14T00:20:23.987Z,714.14
2022-08-14T00:21:18.425Z,714.27
2022-08-14T00:22:44.443Z,714.37
2022-08-14T00:23:18.705Z,714.56
2022-08-14T00:24:23.283Z,714.61
2022-08-14T00:25:18.405Z,714.61
2022-08-14T00:26:21.846Z,714.74
2022-08-14T00:27:18.363Z,714.76
2022-08-14T00:28:18.401Z,714.83
2022-08-14T00:29:18.332Z,714.83
2022-08-14T00:30:18.340Z,714.84
2022-08-14T00:31:18.324Z,714.90
2022-08-14T00:32:52.369Z,714.91
2022-08-14T00:33:18.290Z,714.92
2022-08-14T00:34:37.216Z,715.02
2022-08-14T00:35:18.285Z,715.08
2022-08-14T00:36:35.629Z,715.11
2022-08-14T00:37:18.238Z,715.44
2022-08-14T00:38:18.230Z,715.61
2022-08-14T00:39:18.678Z,715.90
2022-08-14T00:40:27.457Z,716.16
2022-08-14T00:41:18.201Z,716.18
2022-08-14T00:42:21.199Z,716.40
2022-08-14T00:43:18.181Z,716.51
2022-08-14T00:44:21.251Z,716.75
2022-08-14T00:45:18.162Z,716.89
2022-08-14T00:47:27.709Z,717.83
2022-08-14T00:48:34.458Z,717.77
2022-08-14T00:49:30.186Z,717.69
2022-08-14T00:50:28.687Z,717.67
2022-08-14T00:51:37.690Z,717.69
2022-08-14T00:52:28.659Z,717.82
2022-08-14T00:53:28.643Z,717.53
2022-08-14T00:54:28.646Z,717.36
2022-08-14T00:55:30.080Z,717.47
2022-08-14T00:56:31.221Z,717.67
2022-08-14T00:57:28.598Z,717.95
2022-08-14T00:58:33.036Z,718.14
2022-08-14T00:59:28.960Z,718.21
2022-08-14T01:00:37.447Z,718.24
2022-08-14T01:01:28.645Z,718.43
2022-08-14T01:02:31.897Z,718.50
2022-08-14T01:03:28.539Z,718.67
2022-08-14T01:04:38.001Z,718.76
2022-08-14T01:05:29.241Z,718.93
2022-08-14T01:06:30.330Z,718.90
2022-08-14T01:07:28.493Z,719.10
2022-08-14T01:08:57.928Z,719.16
2022-08-14T01:09:28.502Z,719.35
2022-08-14T01:10:28.478Z,719.60
2022-08-14T01:11:35.234Z,719.69
2022-08-14T01:12:29.508Z,719.96
2022-08-14T01:13:28.432Z,720.17
2022-08-14T01:14:28.718Z,720.34
2022-08-14T01:15:57.485Z,720.41
2022-08-14T01:16:31.036Z,720.47
2022-08-14T01:17:28.425Z,720.73
2022-08-14T01:18:28.376Z,720.96
2022-08-14T01:19:28.365Z,720.95
2022-08-14T01:20:29.714Z,721.04
2022-08-14T01:21:28.348Z,721.14
2022-08-14T01:22:29.539Z,721.35
2022-08-14T01:23:41.769Z,721.46
2022-08-14T01:24:30.895Z,721.48
2022-08-14T01:25:28.301Z,721.73
2022-08-14T01:26:35.011Z,721.86
2022-08-14T01:27:28.298Z,722.02
2022-08-14T01:28:46.409Z,722.18
2022-08-14T01:29:58.436Z,722.33
2022-08-14T01:30:28.244Z,722.40
2022-08-14T01:31:30.375Z,722.48
2022-08-14T01:32:30.070Z,722.66
2022-08-14T01:33:28.209Z,722.78
2022-08-14T01:35:17.700Z,722.98
2022-08-14T01:36:04.624Z,723.25
2022-08-14T01:36:28.181Z,723.37
2022-08-14T01:37:28.165Z,723.45
2022-08-14T01:38:28.155Z,723.69
2022-08-14T01:39:28.218Z,723.85
2022-08-14T01:40:36.224Z,724.05
2022-08-14T01:41:29.855Z,724.18
2022-08-14T01:42:32.035Z,724.18
2022-08-14T01:43:28.116Z,724.29
2022-08-14T01:44:32.596Z,724.60
2022-08-14T01:45:28.080Z,724.52
2022-08-14T01:46:33.354Z,724.54
2022-08-14T01:47:37.356Z,724.48
2022-08-14T01:48:28.045Z,724.54
2022-08-14T01:49:35.103Z,724.61
2022-08-14T01:50:28.029Z,724.90
2022-08-14T01:51:28.034Z,725.07
2022-08-14T01:52:34.178Z,725.16
2022-08-14T01:53:31.542Z,725.28
2022-08-14T01:54:37.850Z,725.38
2022-08-14T01:55:27.968Z,725.42
2022-08-14T01:56:27.963Z,725.54
2022-08-14T01:57:49.167Z,725.64
2022-08-14T01:58:28.547Z,725.90
2022-08-14T01:59:38.267Z,726.02
2022-08-14T02:00:27.971Z,726.02
2022-08-14T02:01:27.938Z,726.05
2022-08-14T02:02:27.925Z,726.04
2022-08-14T02:03:29.641Z,726.09
2022-08-14T02:04:54.668Z,726.19
2022-08-14T02:05:27.863Z,726.07
2022-08-14T02:06:32.109Z,725.93
2022-08-14T02:07:44.901Z,725.74
2022-08-14T02:08:34.686Z,725.63
2022-08-14T02:09:27.818Z,725.82
2022-08-14T02:10:27.809Z,725.99
2022-08-14T02:11:29.103Z,726.02
2022-08-14T02:12:29.197Z,725.77
2022-08-14T02:13:27.779Z,725.85
2022-08-14T02:14:31.259Z,725.97
2022-08-14T02:15:27.758Z,726.19
2022-08-14T02:16:27.736Z,726.20
2022-08-14T02:17:27.756Z,726.16
2022-08-14T02:18:27.720Z,726.45
2022-08-14T02:19:27.720Z,726.48
2022-08-14T02:20:27.700Z,726.47
2022-08-14T02:21:27.691Z,726.51
2022-08-14T02:22:32.720Z,726.50
2022-08-14T02:23:32.428Z,726.41
2022-08-14T02:24:39.043Z,726.47
2022-08-14T02:25:29.990Z,726.44
2022-08-14T02:26:29.814Z,726.05
2022-08-14T02:28:23.366Z,725.88
2022-08-14T02:28:57.334Z,726.00
2022-08-14T02:29:27.597Z,725.59
2022-08-14T02:30:30.741Z,725.22
2022-08-14T02:31:28.643Z,725.00
2022-08-14T02:32:30.379Z,724.97
2022-08-14T02:33:29.392Z,724.99
2022-08-14T02:34:27.714Z,725.07
2022-08-14T02:35:32.801Z,725.05
2022-08-14T02:37:03.902Z,725.08
2022-08-14T02:37:47.013Z,725.33
2022-08-14T02:38:30.243Z,725.44
2022-08-14T02:39:27.771Z,725.48
2022-08-14T02:40:32.624Z,725.61
2022-08-14T02:41:28.897Z,725.56
2022-08-14T02:42:37.051Z,725.60
2022-08-14T02:43:37.352Z,725.81
2022-08-14T02:44:29.480Z,725.82
2022-08-14T02:45:32.939Z,726.17
2022-08-14T02:46:32.249Z,726.24
2022-08-14T02:49:04.921Z,726.86
2022-08-14T02:49:37.352Z,726.56
2022-08-14T02:50:37.341Z,726.61
2022-08-14T02:51:37.326Z,726.55
2022-08-14T02:53:13.223Z,726.52
2022-08-14T02:53:37.566Z,726.54
2022-08-14T02:54:37.314Z,726.45
2022-08-14T02:55:37.280Z,726.32
2022-08-14T02:57:15.562Z,726.17
2022-08-14T02:57:39.858Z,726.24
2022-08-14T02:58:37.264Z,726.15
2022-08-14T02:59:37.263Z,726.24
2022-08-14T03:00:39.966Z,726.38
2022-08-14T03:01:50.222Z,726.45
2022-08-14T03:02:56.797Z,726.36
2022-08-14T03:03:38.870Z,726.47
2022-08-14T03:04:37.179Z,726.63
2022-08-14T03:05:41.350Z,726.87
2022-08-14T03:06:57.335Z,726.96
2022-08-14T03:07:37.156Z,727.16
2022-08-14T03:08:37.137Z,727.17
2022-08-14T03:09:42.299Z,727.28
2022-08-14T03:10:37.143Z,727.46
2022-08-14T03:11:37.400Z,727.54
2022-08-14T03:12:37.147Z,727.66
2022-08-14T03:13:37.096Z,727.75
2022-08-14T03:14:37.084Z,727.56
2022-08-14T03:15:37.065Z,727.51
2022-08-14T03:16:38.621Z,727.60
2022-08-14T03:17:40.960Z,727.54
2022-08-14T03:18:37.030Z,727.53
2022-08-14T03:19:37.022Z,727.42
2022-08-14T03:20:37.008Z,727.09
2022-08-14T03:21:36.997Z,727.16
2022-08-14T03:22:36.990Z,727.32
2022-08-14T03:23:38.555Z,727.35
2022-08-14T03:24:36.963Z,727.30
2022-08-14T03:25:37.527Z,727.44
2022-08-14T03:26:36.944Z,727.49
2022-08-14T03:27:48.253Z,727.51
2022-08-14T03:28:36.922Z,727.69
2022-08-14T03:29:36.908Z,727.70
2022-08-14T03:30:39.687Z,727.60
2022-08-14T03:31:36.888Z,727.65
2022-08-14T03:32:36.903Z,727.34
2022-08-14T03:33:38.007Z,727.24
2022-08-14T03:34:47.871Z,726.98
2022-08-14T03:35:40.370Z,726.77
2022-08-14T03:39:11.543Z,727.02
2022-08-14T03:39:21.538Z,726.75
2022-08-14T03:39:46.823Z,726.74
2022-08-14T03:40:46.759Z,726.89
2022-08-14T03:41:46.762Z,727.09
2022-08-14T03:42:46.890Z,727.13
2022-08-14T03:43:46.721Z,727.07
2022-08-14T03:45:19.258Z,727.21
2022-08-14T03:45:48.050Z,727.27
2022-08-14T03:46:54.850Z,727.28
2022-08-14T03:47:58.467Z,727.14
2022-08-14T03:48:46.697Z,727.13
2022-08-14T03:49:50.109Z,727.33
2022-08-14T03:50:47.017Z,727.60
2022-08-14T03:51:46.635Z,727.61
2022-08-14T03:52:48.104Z,727.88
2022-08-14T03:53:46.657Z,727.98
2022-08-14T03:54:46.612Z,728.13
2022-08-14T03:55:46.594Z,728.16
2022-08-14T03:56:46.582Z,728.30
2022-08-14T03:57:46.567Z,728.50
2022-08-14T03:58:46.573Z,728.41
2022-08-14T03:59:46.545Z,728.29
2022-08-14T04:00:46.650Z,728.27
2022-08-14T04:01:57.925Z,728.24
2022-08-14T04:02:47.031Z,728.10
2022-08-14T04:03:46.500Z,728.00
2022-08-14T04:04:46.488Z,727.98
2022-08-14T04:05:49.034Z,727.99
2022-08-14T04:06:48.530Z,728.04
2022-08-14T04:07:49.752Z,728.02
2022-08-14T04:08:46.443Z,727.99
2022-08-14T04:09:46.435Z,727.80
2022-08-14T04:10:46.430Z,727.80
2022-08-14T04:11:46.434Z,727.93
2022-08-14T04:12:51.708Z,728.01
2022-08-14T04:13:46.393Z,728.02
2022-08-14T04:14:46.393Z,727.99
2022-08-14T04:15:56.131Z,728.04
2022-08-14T04:16:46.387Z,727.87
2022-08-14T04:17:46.400Z,727.82
2022-08-14T04:18:46.352Z,727.60
2022-08-14T04:19:46.325Z,727.64
2022-08-14T04:20:54.300Z,727.55
2022-08-14T04:22:02.389Z,727.34
2022-08-14T04:22:46.311Z,727.30
2022-08-14T04:23:46.539Z,727.20
2022-08-14T04:24:46.267Z,727.09
2022-08-14T04:25:46.259Z,727.10
2022-08-14T04:26:46.269Z,727.14
2022-08-14T04:28:02.106Z,727.30
2022-08-14T04:29:02.170Z,727.47
2022-08-14T04:29:46.219Z,727.75
2022-08-14T04:30:46.203Z,727.81
2022-08-14T04:32:57.335Z,727.85
2022-08-14T04:32:59.000Z,727.80
2022-08-14T04:33:46.169Z,727.81
2022-08-14T04:34:51.981Z,727.78
2022-08-14T04:35:56.460Z,727.91
2022-08-14T04:36:46.801Z,728.02
2022-08-14T04:37:46.122Z,728.06
2022-08-14T04:38:46.939Z,728.21
2022-08-14T04:39:46.725Z,728.25
2022-08-14T04:40:46.091Z,728.46
2022-08-14T04:41:46.108Z,728.37
2022-08-14T04:42:47.657Z,728.51
2022-08-14T04:43:46.056Z,728.63
2022-08-14T04:44:51.440Z,728.56
2022-08-14T04:45:46.039Z,728.51
2022-08-14T04:46:56.074Z,728.62
2022-08-14T04:47:46.465Z,728.55
2022-08-14T04:48:51.120Z,728.41
2022-08-14T04:49:56.697Z,728.39
2022-08-14T04:50:49.114Z,728.44
2022-08-14T04:51:46.794Z,728.26
2022-08-14T04:52:46.004Z,728.13
2022-08-14T04:53:45.956Z,728.04
2022-08-14T04:54:45.932Z,727.99
2022-08-14T04:55:46.131Z,728.01
2022-08-14T04:56:45.914Z,728.09
2022-08-14T04:57:45.925Z,728.07
2022-08-14T04:58:45.898Z,727.89
2022-08-14T04:59:45.889Z,727.96
2022-08-14T05:00:45.878Z,727.94
2022-08-14T05:01:48.853Z,727.98
2022-08-14T05:02:46.161Z,727.87
2022-08-14T05:03:45.842Z,727.82
2022-08-14T05:04:58.464Z,727.73
2022-08-14T05:05:45.810Z,727.74
2022-08-14T05:06:45.806Z,727.64
2022-08-14T05:07:54.159Z,727.41
2022-08-14T05:08:56.935Z,727.34
2022-08-14T05:09:47.872Z,727.20
2022-08-14T05:10:45.784Z,727.15
2022-08-14T05:11:45.749Z,727.08
2022-08-14T05:13:13.281Z,726.99
2022-08-14T05:14:53.294Z,726.64
2022-08-14T05:15:45.722Z,726.57
2022-08-14T05:16:46.821Z,726.39
2022-08-14T05:17:53.878Z,726.30
2022-08-14T05:19:18.019Z,726.13
2022-08-14T05:21:04.126Z,725.97
2022-08-14T05:21:55.987Z,725.40
2022-08-14T05:21:58.292Z,725.67
2022-08-14T05:22:45.855Z,725.30
2022-08-14T05:23:45.621Z,725.07
2022-08-14T05:24:45.620Z,724.72
2022-08-14T05:25:45.628Z,724.56
2022-08-14T05:26:45.586Z,724.02
2022-08-14T05:27:45.574Z,723.58
2022-08-14T05:28:45.563Z,723.32
2022-08-14T05:29:45.552Z,723.24
2022-08-14T05:30:45.551Z,722.61
2022-08-14T05:31:45.535Z,722.16
2022-08-14T05:32:46.733Z,721.50
2022-08-14T05:33:45.506Z,721.42
2022-08-14T05:34:45.790Z,720.86
2022-08-14T05:35:46.644Z,720.60
2022-08-14T05:36:50.442Z,720.12
2022-08-14T05:38:55.296Z,719.78
2022-08-14T05:39:55.616Z,718.74
2022-08-14T05:40:55.408Z,718.59
2022-08-14T05:41:55.440Z,718.17
2022-08-14T05:42:55.390Z,717.99
2022-08-14T05:43:55.391Z,717.93
2022-08-14T05:44:56.036Z,718.04
2022-08-14T05:45:55.355Z,717.55
2022-08-14T05:46:55.343Z,717.06
2022-08-14T05:47:55.327Z,717.06
2022-08-14T05:48:55.369Z,716.62
2022-08-14T05:49:55.313Z,715.88
2022-08-14T05:50:55.297Z,715.31
2022-08-14T05:51:55.294Z,714.81
2022-08-14T05:52:55.605Z,715.15
2022-08-14T05:54:01.828Z,714.85
2022-08-14T05:54:55.254Z,715.32
2022-08-14T05:55:55.251Z,715.04
2022-08-14T05:56:55.355Z,714.65
2022-08-14T05:57:59.419Z,714.29
2022-08-14T05:58:55.241Z,714.23
2022-08-14T05:59:55.205Z,713.60
2022-08-14T06:00:55.207Z,713.06
2022-08-14T06:01:55.212Z,712.63
2022-08-14T06:02:55.172Z,711.98
2022-08-14T06:03:55.189Z,711.50
2022-08-14T06:04:55.146Z,710.74
2022-08-14T06:05:55.139Z,710.79
2022-08-14T06:06:55.127Z,710.75
2022-08-14T06:07:55.115Z,711.57
2022-08-14T06:08:55.126Z,711.84
2022-08-14T06:09:55.105Z,711.51
2022-08-14T06:10:55.082Z,711.31
2022-08-14T06:11:55.074Z,710.93
2022-08-14T06:12:56.382Z,710.30
2022-08-14T06:13:55.073Z,709.69
2022-08-14T06:14:55.065Z,709.03
2022-08-14T06:15:55.025Z,709.06
2022-08-14T06:16:55.017Z,708.91
2022-08-14T06:17:58.661Z,708.41
2022-08-14T06:18:54.998Z,707.61
2022-08-14T06:19:54.992Z,709.46
2022-08-14T06:20:54.983Z,709.25
2022-08-14T06:21:58.215Z,708.86
2022-08-14T06:22:54.964Z,707.84
2022-08-14T06:23:54.953Z,707.18
2022-08-14T06:24:54.948Z,706.46
2022-08-14T06:25:54.930Z,705.99
2022-08-14T06:26:57.031Z,705.24
2022-08-14T06:27:54.957Z,704.57
2022-08-14T06:28:54.888Z,704.24
2022-08-14T06:29:54.880Z,703.82
2022-08-14T06:30:54.869Z,703.42
2022-08-14T06:32:00.095Z,703.29
2022-08-14T06:32:55.317Z,704.06
2022-08-14T06:35:03.966Z,704.31
2022-08-14T06:35:11.110Z,704.06
2022-08-14T06:35:54.833Z,704.47
2022-08-14T06:36:54.803Z,704.45
2022-08-14T06:37:54.934Z,704.05
2022-08-14T06:38:54.780Z,703.23
2022-08-14T06:39:54.800Z,703.28
2022-08-14T06:40:54.760Z,702.75
2022-08-14T06:41:58.390Z,702.52
2022-08-14T06:42:54.836Z,702.14
2022-08-14T06:43:54.725Z,701.26
2022-08-14T06:44:54.713Z,701.02
2022-08-14T06:45:54.843Z,701.18
2022-08-14T06:46:54.705Z,701.27
2022-08-14T06:47:54.700Z,701.11
2022-08-14T06:48:54.666Z,700.88
2022-08-14T06:49:58.121Z,700.29
2022-08-14T06:50:54.650Z,700.22
2022-08-14T06:51:54.635Z,700.73
2022-08-14T06:52:54.640Z,701.15
2022-08-14T06:53:54.614Z,701.21
2022-08-14T06:54:54.604Z,701.44
2022-08-14T06:56:00.763Z,700.65
2022-08-14T06:56:54.602Z,700.60
2022-08-14T06:57:54.598Z,699.92
2022-08-14T06:58:54.570Z,699.70
2022-08-14T06:59:54.549Z,699.12
2022-08-14T07:00:54.598Z,700.73
2022-08-14T07:01:56.553Z,701.48
2022-08-14T07:02:54.544Z,701.54
2022-08-14T07:03:54.507Z,701.39
2022-08-14T07:04:54.509Z,700.79
2022-08-14T07:05:55.886Z,699.55
2022-08-14T07:06:55.866Z,698.55
2022-08-14T07:07:54.514Z,697.88
2022-08-14T07:08:54.457Z,697.72
2022-08-14T07:09:54.441Z,697.57
2022-08-14T07:10:54.433Z,697.52
2022-08-14T07:11:54.422Z,697.27
2022-08-14T07:13:03.993Z,696.40
2022-08-14T07:13:54.409Z,695.44
2022-08-14T07:15:00.982Z,695.24
2022-08-14T07:15:55.185Z,695.26
2022-08-14T07:16:54.376Z,694.87
2022-08-14T07:17:54.381Z,696.01
2022-08-14T07:18:54.349Z,697.05
2022-08-14T07:19:54.341Z,698.04
2022-08-14T07:20:54.325Z,697.11
2022-08-14T07:21:54.316Z,696.39
2022-08-14T07:22:56.897Z,696.04
2022-08-14T07:23:54.307Z,694.95
2022-08-14T07:24:54.278Z,694.11
2022-08-14T07:25:54.273Z,694.14
2022-08-14T07:26:54.265Z,694.14
2022-08-14T07:27:54.272Z,693.46
2022-08-14T07:28:54.242Z,692.73
2022-08-14T07:29:54.229Z,691.91
2022-08-14T07:30:54.219Z,690.93
2022-08-14T07:31:54.201Z,690.82
2022-08-14T07:32:54.205Z,690.78
2022-08-14T07:33:54.192Z,690.36
2022-08-14T07:34:54.178Z,690.20
2022-08-14T07:35:57.705Z,689.36
2022-08-14T07:37:01.205Z,688.61
2022-08-14T07:37:54.143Z,688.65
2022-08-14T07:40:03.531Z,690.76
2022-08-14T07:41:04.370Z,690.35
2022-08-14T07:42:04.390Z,691.62
2022-08-14T07:43:14.371Z,691.81
2022-08-14T07:44:32.644Z,692.63
2022-08-14T07:45:04.327Z,692.96
2022-08-14T07:46:04.347Z,692.69
2022-08-14T07:47:05.225Z,692.28
2022-08-14T07:48:04.579Z,691.59
2022-08-14T07:49:04.294Z,690.66
2022-08-14T07:50:04.274Z,690.05
2022-08-14T07:51:10.892Z,690.91
2022-08-14T07:52:04.271Z,690.54
2022-08-14T07:53:04.250Z,689.54
2022-08-14T07:54:04.245Z,688.49
2022-08-14T07:55:04.246Z,689.37
2022-08-14T07:56:08.941Z,689.68
2022-08-14T07:57:11.982Z,689.41
2022-08-14T07:58:05.969Z,688.42
2022-08-14T07:59:04.179Z,687.34
2022-08-14T08:00:04.211Z,686.84
2022-08-14T08:01:04.161Z,686.91
2022-08-14T08:02:04.154Z,686.47
2022-08-14T08:03:04.248Z,687.18
2022-08-14T08:04:04.135Z,686.76
2022-08-14T08:05:04.142Z,686.41
2022-08-14T08:06:04.114Z,685.65
2022-08-14T08:07:05.498Z,684.83
2022-08-14T08:08:04.145Z,684.51
2022-08-14T08:09:04.086Z,683.54
2022-08-14T08:10:04.096Z,682.59
2022-08-14T08:11:04.060Z,683.02
2022-08-14T08:12:04.820Z,683.75
2022-08-14T08:13:04.036Z,683.39
2022-08-14T08:14:04.018Z,682.99
2022-08-14T08:15:07.199Z,682.83
2022-08-14T08:16:04.006Z,683.02
2022-08-14T08:17:04.003Z,683.28
2022-08-14T08:18:04.135Z,683.07
2022-08-14T08:19:12.665Z,682.52
2022-08-14T08:20:03.955Z,684.04
2022-08-14T08:21:03.976Z,685.12
2022-08-14T08:22:03.936Z,685.62
2022-08-14T08:23:06.264Z,684.70
2022-08-14T08:24:03.928Z,685.34
2022-08-14T08:25:06.455Z,684.77
2022-08-14T08:26:03.921Z,684.01
2022-08-14T08:27:03.881Z,683.60
2022-08-14T08:28:08.240Z,684.00
2022-08-14T08:29:03.872Z,683.78
2022-08-14T08:30:03.853Z,684.03
2022-08-14T08:31:03.852Z,683.66
2022-08-14T08:32:06.258Z,682.42
2022-08-14T08:33:03.849Z,681.54
2022-08-14T08:34:03.804Z,681.14
2022-08-14T08:35:03.798Z,680.47
2022-08-14T08:36:03.806Z,680.68
2022-08-14T08:37:07.271Z,681.73
2022-08-14T08:38:03.794Z,682.73
2022-08-14T08:39:15.316Z,684.25
2022-08-14T08:40:04.332Z,683.36
2022-08-14T08:41:03.732Z,682.76
2022-08-14T08:42:04.204Z,682.35
2022-08-14T08:43:03.735Z,682.71
2022-08-14T08:44:03.709Z,682.10
2022-08-14T08:45:03.698Z,681.03
2022-08-14T08:46:03.694Z,680.73
2022-08-14T08:47:03.804Z,680.37
2022-08-14T08:48:03.700Z,679.68
2022-08-14T08:49:03.656Z,679.15
2022-08-14T08:50:03.639Z,678.80
2022-08-14T08:51:03.628Z,678.88
2022-08-14T08:52:03.622Z,678.31
2022-08-14T08:53:03.605Z,678.01
2022-08-14T08:54:03.595Z,677.14
2022-08-14T08:55:04.951Z,676.76
2022-08-14T08:56:03.573Z,677.21
2022-08-14T08:57:03.565Z,677.29
2022-08-14T08:58:03.567Z,676.76
2022-08-14T08:59:03.550Z,676.77
2022-08-14T09:00:10.011Z,676.11
2022-08-14T09:01:03.594Z,676.68
2022-08-14T09:02:03.980Z,676.03
2022-08-14T09:03:04.080Z,675.12
2022-08-14T09:04:03.491Z,676.63
2022-08-14T09:05:03.511Z,677.08
2022-08-14T09:06:03.491Z,677.67
2022-08-14T09:07:09.880Z,677.71
2022-08-14T09:08:03.449Z,677.78
2022-08-14T09:09:03.439Z,677.43
2022-08-14T09:10:03.714Z,676.95
2022-08-14T09:11:19.461Z,676.98
2022-08-14T09:12:03.411Z,676.02
2022-08-14T09:13:03.393Z,676.14
2022-08-14T09:14:03.384Z,676.25
2022-08-14T09:15:03.390Z,675.77
2022-08-14T09:16:18.358Z,674.92
2022-08-14T09:17:03.608Z,675.09
2022-08-14T09:18:03.350Z,674.11
2022-08-14T09:19:03.378Z,673.58
2022-08-14T09:20:04.099Z,672.74
2022-08-14T09:21:03.321Z,672.36
2022-08-14T09:22:03.308Z,671.99
2022-08-14T09:23:03.289Z,671.46
2022-08-14T09:24:29.193Z,671.05
2022-08-14T09:25:03.273Z,671.07
2022-08-14T09:26:04.957Z,671.21
2022-08-14T09:27:03.244Z,671.50
2022-08-14T09:28:03.240Z,671.90
2022-08-14T09:29:03.244Z,671.58
2022-08-14T09:30:12.675Z,671.94
2022-08-14T09:31:07.386Z,672.06
2022-08-14T09:32:03.192Z,671.22
2022-08-14T09:33:11.721Z,670.91
2022-08-14T09:34:04.360Z,672.32
2022-08-14T09:35:03.195Z,672.26
2022-08-14T09:36:03.162Z,672.83
2022-08-14T09:37:03.150Z,673.78
2022-08-14T09:38:03.132Z,675.75
2022-08-14T09:39:03.122Z,676.98
2022-08-14T09:41:12.019Z,675.71
2022-08-14T09:42:21.406Z,675.89
2022-08-14T09:43:12.696Z,674.89
2022-08-14T09:44:12.687Z,673.84
2022-08-14T09:45:12.671Z,674.28
2022-08-14T09:46:16.946Z,674.88
2022-08-14T09:47:14.637Z,675.26
2022-08-14T09:48:12.644Z,677.16
2022-08-14T09:49:16.408Z,677.10
2022-08-14T09:50:12.654Z,676.60
2022-08-14T09:51:12.668Z,676.56
2022-08-14T09:52:33.370Z,675.37
2022-08-14T09:53:18.477Z,674.67
2022-08-14T09:54:22.633Z,674.12
2022-08-14T09:55:12.570Z,673.23
2022-08-14T09:56:12.586Z,671.75
2022-08-14T09:57:12.550Z,671.09
2022-08-14T09:58:19.279Z,670.09
2022-08-14T09:59:12.523Z,669.89
2022-08-14T10:00:29.548Z,669.93
2022-08-14T10:01:12.517Z,670.16
2022-08-14T10:02:12.544Z,669.76
2022-08-14T10:03:12.537Z,669.49
2022-08-14T10:04:12.475Z,669.15
2022-08-14T10:05:13.129Z,669.06
2022-08-14T10:06:12.666Z,668.74
2022-08-14T10:07:12.515Z,669.02
2022-08-14T10:08:14.846Z,669.72
2022-08-14T10:09:16.770Z,669.59
2022-08-14T10:10:23.603Z,669.23
2022-08-14T10:11:12.428Z,669.07
2022-08-14T10:12:13.373Z,668.62
2022-08-14T10:13:12.405Z,668.52
2022-08-14T10:14:12.365Z,668.50
2022-08-14T10:15:12.363Z,668.36
2022-08-14T10:16:25.663Z,668.54
2022-08-14T10:17:12.346Z,668.04
2022-08-14T10:18:13.403Z,670.35
2022-08-14T10:19:12.326Z,670.32
2022-08-14T10:20:40.478Z,671.97
2022-08-14T10:21:12.327Z,672.47
2022-08-14T10:23:14.964Z,672.16
2022-08-14T10:23:16.288Z,671.40
2022-08-14T10:24:12.268Z,670.89
2022-08-14T10:25:12.254Z,671.15
2022-08-14T10:26:23.168Z,670.00
2022-08-14T10:27:12.242Z,669.49
2022-08-14T10:28:39.461Z,668.66
2022-08-14T10:29:20.159Z,668.62
2022-08-14T10:30:12.360Z,668.66
2022-08-14T10:31:12.199Z,668.05
2022-08-14T10:32:17.913Z,668.14
2022-08-14T10:33:12.199Z,667.23
2022-08-14T10:34:12.998Z,666.96
2022-08-14T10:35:14.337Z,666.65
2022-08-14T10:36:15.506Z,665.77
2022-08-14T10:37:14.624Z,665.89
2022-08-14T10:38:12.136Z,665.59
2022-08-14T10:39:12.170Z,666.03
2022-08-14T10:40:38.604Z,666.27
2022-08-14T10:41:12.169Z,666.75
2022-08-14T10:42:16.602Z,666.37
2022-08-14T10:43:12.078Z,666.02
2022-08-14T10:44:21.576Z,666.01
2022-08-14T10:45:12.077Z,665.47
2022-08-14T10:47:36.449Z,664.75
2022-08-14T10:47:39.554Z,663.66
2022-08-14T10:48:24.394Z,663.34
2022-08-14T10:49:12.006Z,666.86
2022-08-14T10:50:14.896Z,667.75
2022-08-14T10:51:11.981Z,666.85
2022-08-14T10:52:11.974Z,665.88
2022-08-14T10:53:11.957Z,666.58
2022-08-14T10:54:17.131Z,666.79
2022-08-14T10:55:12.702Z,666.32
2022-08-14T10:56:21.181Z,666.66
2022-08-14T10:57:11.917Z,666.88
2022-08-14T10:58:11.912Z,666.15
2022-08-14T10:59:11.894Z,665.72
2022-08-14T11:00:11.885Z,666.26
2022-08-14T11:01:11.905Z,666.37
2022-08-14T11:02:11.868Z,667.17
2022-08-14T11:03:11.854Z,666.90
2022-08-14T11:04:11.893Z,668.07
2022-08-14T11:05:11.839Z,669.02
2022-08-14T11:06:11.849Z,669.18
2022-08-14T11:07:11.822Z,667.63
2022-08-14T11:08:12.756Z,668.29
2022-08-14T11:09:11.793Z,668.46
2022-08-14T11:10:11.778Z,667.94
2022-08-14T11:11:11.795Z,666.59
2022-08-14T11:12:34.846Z,665.34
2022-08-14T11:13:11.750Z,664.17
2022-08-14T11:14:11.747Z,663.39
2022-08-14T11:15:11.746Z,663.18
2022-08-14T11:16:11.745Z,665.16
2022-08-14T11:17:11.710Z,666.30
2022-08-14T11:18:12.004Z,665.76
2022-08-14T11:19:11.694Z,666.65
2022-08-14T11:20:13.943Z,666.72
2022-08-14T11:21:11.693Z,666.72
2022-08-14T11:22:15.321Z,666.73
2022-08-14T11:23:11.649Z,667.02
2022-08-14T11:24:54.462Z,666.88
2022-08-14T11:25:11.644Z,666.69
2022-08-14T11:26:11.641Z,666.55
2022-08-14T11:27:11.606Z,666.74
2022-08-14T11:28:14.496Z,665.42
2022-08-14T11:29:11.581Z,664.34
2022-08-14T11:30:51.714Z,663.40
2022-08-14T11:31:11.578Z,663.23
2022-08-14T11:32:11.551Z,663.91
2022-08-14T11:33:11.540Z,665.82
2022-08-14T11:34:32.253Z,667.36
2022-08-14T11:35:11.523Z,667.67
2022-08-14T11:36:18.553Z,667.37
2022-08-14T11:37:22.815Z,666.40
2022-08-14T11:38:11.493Z,665.95
2022-08-14T11:39:11.467Z,665.33
2022-08-14T11:40:11.519Z,664.95
2022-08-14T11:42:57.959Z,664.71
2022-08-14T11:43:22.640Z,664.49
2022-08-14T11:44:45.418Z,664.82
2022-08-14T11:45:23.186Z,664.79
2022-08-14T11:46:30.574Z,664.22
2022-08-14T11:47:21.350Z,663.87
2022-08-14T11:49:02.563Z,663.84
2022-08-14T11:49:22.126Z,663.41
2022-08-14T11:50:33.747Z,663.53
2022-08-14T11:51:24.036Z,664.12
2022-08-14T11:52:21.692Z,664.95
2022-08-14T11:53:21.287Z,664.66
2022-08-14T11:54:33.607Z,663.71
2022-08-14T11:55:25.577Z,662.44
2022-08-14T11:56:25.359Z,661.43
2022-08-14T11:57:22.882Z,661.03
2022-08-14T11:58:23.945Z,660.49
2022-08-14T11:59:26.176Z,660.04
2022-08-14T12:00:21.216Z,660.15
2022-08-14T12:01:21.197Z,660.64
2022-08-14T12:03:01.030Z,660.35
2022-08-14T12:03:37.366Z,660.96
2022-08-14T12:04:32.811Z,661.28
2022-08-14T12:05:21.335Z,661.14
2022-08-14T12:06:28.115Z,660.76
2022-08-14T12:07:21.145Z,659.92
2022-08-14T12:08:24.258Z,659.43
2022-08-14T12:09:21.123Z,659.31
2022-08-14T12:10:25.494Z,659.21
2022-08-14T12:11:21.117Z,659.46
2022-08-14T12:12:36.088Z,660.12
2022-08-14T12:13:22.450Z,659.83
2022-08-14T12:14:31.156Z,659.66
2022-08-14T12:15:21.065Z,661.32
2022-08-14T12:16:21.095Z,661.68
2022-08-14T12:17:23.982Z,661.99
2022-08-14T12:18:21.037Z,661.57
2022-08-14T12:19:21.029Z,660.73
2022-08-14T12:20:30.028Z,660.61
2022-08-14T12:21:21.017Z,661.07
2022-08-14T12:22:29.569Z,662.73
2022-08-14T12:23:20.979Z,662.55
2022-08-14T12:24:35.980Z,662.08
2022-08-14T12:25:20.963Z,661.95
2022-08-14T12:26:39.455Z,663.78
2022-08-14T12:27:25.055Z,663.16
2022-08-14T12:28:27.216Z,662.18
2022-08-14T12:29:20.943Z,661.73
2022-08-14T12:30:20.897Z,661.42
2022-08-14T12:31:21.398Z,661.76
2022-08-14T12:32:20.877Z,661.47
2022-08-14T12:33:20.898Z,662.26
2022-08-14T12:34:24.065Z,661.84
2022-08-14T12:35:20.909Z,662.90
2022-08-14T12:36:20.960Z,663.27
2022-08-14T12:37:20.857Z,664.60